This is the latest recevied weather packets stored in our database for station/object N3EYQ. If no packets are shown the sender has not sent any weather packets the latest 10 day(s).
| Time | Temp. | Humidity | Pressure | Rain* | Wind** | Luminosity | Snow |
|---|---|---|---|---|---|---|---|
| 1777783202 | 5° C | 66% | 1012.7 hPa | 0 mm | - | - | - |
| 1777782601 | 5° C | 67% | 1012.7 hPa | 0 mm | - | - | - |
| 1777782001 | 5.56° C | 65% | 1012.7 hPa | 0 mm | - | - | - |
| 1777781401 | 5.56° C | 65% | 1012.7 hPa | 0 mm | - | - | - |
| 1777780801 | 5.56° C | 64% | 1012.7 hPa | 0 mm | - | - | - |
| 1777780201 | 5.56° C | 64% | 1012.7 hPa | 0 mm | - | - | - |
| 1777779600 | 5.56° C | 63% | 1012.7 hPa | 0 mm | - | - | - |
| 1777779000 | 5.56° C | 61% | 1012.7 hPa | 0 mm | - | - | - |
| 1777778400 | 6.11° C | 59% | 1012.7 hPa | 0 mm | - | - | - |
| 1777777800 | 6.67° C | 58% | 1012.7 hPa | 0 mm | - | - | - |
| 1777777200 | 6.67° C | 57% | 1012.7 hPa | 0 mm | - | - | - |
| 1777776600 | 7.22° C | 57% | 1013 hPa | 0 mm | - | - | - |
| 1777775999 | 7.78° C | 55% | 1012.7 hPa | 0 mm | - | - | - |
| 1777775399 | 7.78° C | 53% | 1012.7 hPa | 0 mm | - | - | - |
| 1777774800 | 8.33° C | 52% | 1012.7 hPa | 0 mm | - | - | - |
| 1777774199 | 8.33° C | 52% | 1013 hPa | 0 mm | - | - | - |
| 1777773599 | 8.33° C | 53% | 1013 hPa | 0 mm | - | - | - |
| 1777772999 | 8.33° C | 55% | 1013 hPa | 0 mm | - | - | - |
| 1777772399 | 7.22° C | 60% | 1012.7 hPa | 0 mm | - | - | - |
| 1777771799 | 7.22° C | 57% | 1012.7 hPa | 0 mm | - | - | - |
| 1777771199 | 7.78° C | 57% | 1012.7 hPa | 0 mm | - | - | - |
| 1777770598 | 7.78° C | 55% | 1012.7 hPa | 0 mm | - | - | - |
| 1777769998 | 8.89° C | 53% | 1012.7 hPa | 0 mm | - | - | - |
| 1777769398 | 8.89° C | 51% | 1012.3 hPa | 0 mm | - | - | - |
| 1777768798 | 9.44° C | 49% | 1012 hPa | 0 mm | - | - | - |
* Rain latest hour (hover to see other rain measurements)
** Current wind speed in m/s (hover to see current wind gust speed)